Time;durP1;ratioP1;P1;durP2;ratioP2;P2;SDS_P1;SDS_P2;PMS_P1;PMS_P2;Temp;Humidity;BMP_temperature;BMP_pressure;BME280_temperature;BME280_humidity;BME280_pressure;Samples;Min_cycle;Max_cycle;Signal;HPM_P1;HPM_P2
2022/05/30 00:02:12;;;;;;;78.28;42.83;;;;;;;;;;6238918;23;20340;-85
2022/05/30 00:04:38;;;;;;;91.43;45.97;;;;;;;;;;6241017;23;20011;-85
2022/05/30 00:07:06;;;;;;;65.80;38.58;;;;;;;;;;6242082;23;20004;-88
2022/05/30 00:09:33;;;;;;;74.18;41.08;;;;;;;;;;6240452;23;20004;-85
2022/05/30 00:11:59;;;;;;;77.70;42.47;;;;;;;;;;6240662;23;20028;-85
2022/05/30 00:14:26;;;;;;;66.00;39.85;;;;;;;;;;6239001;23;20035;-86
2022/05/30 00:16:52;;;;;;;44.65;29.00;;;;;;;;;;6241068;23;20006;-85
2022/05/30 00:19:18;;;;;;;43.38;27.42;;;;;;;;;;6240854;23;20026;-86
2022/05/30 00:21:44;;;;;;;91.57;47.63;;;;;;;;;;6245785;23;20002;-85
2022/05/30 00:24:11;;;;;;;71.25;40.03;;;;;;;;;;6247285;23;20069;-85
2022/05/30 00:26:37;;;;;;;60.53;38.20;;;;;;;;;;6246123;23;20071;-85
2022/05/30 00:29:04;;;;;;;64.53;39.42;;;;;;;;;;6240540;23;20001;-87
2022/05/30 00:31:30;;;;;;;138.93;57.72;;;;;;;;;;6240596;23;20000;-89
2022/05/30 00:33:56;;;;;;;128.75;57.08;;;;;;;;;;6239900;23;20061;-88
2022/05/30 00:36:22;;;;;;;117.82;53.65;;;;;;;;;;6240786;23;20559;-86
2022/05/30 00:38:48;;;;;;;138.02;59.22;;;;;;;;;;6240400;23;20019;-87
2022/05/30 00:41:14;;;;;;;114.72;54.10;;;;;;;;;;6240665;23;20394;-87
2022/05/30 00:43:44;;;;;;;102.60;50.17;;;;;;;;;;6240203;23;20012;-86
2022/05/30 00:46:12;;;;;;;54.83;36.00;;;;;;;;;;6239195;23;20012;-85
2022/05/30 00:48:52;;;;;;;99.78;48.40;;;;;;;;;;6239775;23;20011;-85
2022/05/30 00:51:20;;;;;;;62.92;39.47;;;;;;;;;;6240323;23;20045;-85
2022/05/30 00:53:47;;;;;;;165.75;64.72;;;;;;;;;;6240486;23;20448;-85
2022/05/30 00:56:14;;;;;;;113.47;53.38;;;;;;;;;;6240464;23;20000;-85
2022/05/30 00:58:43;;;;;;;108.03;50.50;;;;;;;;;;6241393;23;20004;-85
2022/05/30 01:01:09;;;;;;;126.65;55.35;;;;;;;;;;6241385;23;20032;-85
2022/05/30 01:06:32;;;;;;;69.75;40.30;;;;;;;;;;6240509;23;20062;-88
2022/05/30 01:08:58;;;;;;;140.77;58.58;;;;;;;;;;6240622;23;20000;-86
2022/05/30 01:11:24;;;;;;;90.53;47.45;;;;;;;;;;6240334;23;20007;-88
2022/05/30 01:13:50;;;;;;;99.75;49.95;;;;;;;;;;6240469;23;20004;-86
2022/05/30 01:16:16;;;;;;;116.35;52.60;;;;;;;;;;6239078;23;20047;-86
2022/05/30 01:18:45;;;;;;;145.48;59.95;;;;;;;;;;6240293;23;20008;-85
2022/05/30 01:21:30;;;;;;;123.45;55.03;;;;;;;;;;6241401;23;20035;-86
2022/05/30 01:24:05;;;;;;;153.40;62.40;;;;;;;;;;6240129;23;20003;-85
2022/05/30 01:26:38;;;;;;;188.60;69.05;;;;;;;;;;6238630;23;20008;-84
2022/05/30 01:29:07;;;;;;;120.18;53.75;;;;;;;;;;6240451;23;20011;-87
2022/05/30 01:31:33;;;;;;;128.40;56.45;;;;;;;;;;6240231;23;20075;-87
2022/05/30 01:33:59;;;;;;;159.18;63.97;;;;;;;;;;6240105;23;20392;-87
2022/05/30 01:36:27;;;;;;;147.18;60.97;;;;;;;;;;6240204;23;20023;-86
2022/05/30 01:38:53;;;;;;;197.77;73.17;;;;;;;;;;6240198;23;20000;-85
2022/05/30 01:41:19;;;;;;;178.75;68.50;;;;;;;;;;6238765;23;20234;-85
2022/05/30 01:43:45;;;;;;;188.38;70.07;;;;;;;;;;6240116;23;20012;-86
2022/05/30 01:46:14;;;;;;;119.03;54.10;;;;;;;;;;6243058;23;20000;-85
2022/05/30 01:48:40;;;;;;;144.25;59.25;;;;;;;;;;6242877;23;20007;-84
2022/05/30 01:51:06;;;;;;;114.07;52.70;;;;;;;;;;6241909;23;20000;-88
2022/05/30 01:53:32;;;;;;;134.57;57.83;;;;;;;;;;6240318;23;20038;-83
2022/05/30 01:55:58;;;;;;;144.10;59.10;;;;;;;;;;6242072;23;20012;-88
2022/05/30 01:58:24;;;;;;;131.57;56.97;;;;;;;;;;6240366;23;20007;-86
2022/05/30 02:00:50;;;;;;;138.13;58.50;;;;;;;;;;6242189;23;20086;-86
2022/05/30 02:03:17;;;;;;;131.55;56.63;;;;;;;;;;6240471;23;20004;-85
2022/05/30 02:05:43;;;;;;;129.25;56.28;;;;;;;;;;6241263;23;20004;-91
2022/05/30 02:08:09;;;;;;;101.05;49.50;;;;;;;;;;6242051;23;20314;-89
2022/05/30 02:10:36;;;;;;;102.60;49.55;;;;;;;;;;6242094;23;20413;-89
2022/05/30 02:13:02;;;;;;;145.00;60.05;;;;;;;;;;6240508;23;20004;-89
2022/05/30 02:15:28;;;;;;;136.02;58.00;;;;;;;;;;6240223;23;20018;-89
2022/05/30 02:17:54;;;;;;;144.90;60.47;;;;;;;;;;6241768;23;19996;-87
2022/05/30 02:20:21;;;;;;;159.73;63.92;;;;;;;;;;6240223;23;20004;-88
2022/05/30 02:22:47;;;;;;;147.30;60.67;;;;;;;;;;6241852;23;20024;-86
2022/05/30 02:25:13;;;;;;;148.20;60.40;;;;;;;;;;6241387;23;20008;-89
2022/05/30 02:27:41;;;;;;;166.77;65.40;;;;;;;;;;6240334;23;20455;-85
2022/05/30 02:30:08;;;;;;;169.45;66.35;;;;;;;;;;6241920;23;20058;-86
2022/05/30 02:32:34;;;;;;;176.98;68.03;;;;;;;;;;6241591;23;20392;-89
2022/05/30 02:37:44;;;;;;;225.95;80.10;;;;;;;;;;6242897;23;20058;-89
2022/05/30 02:40:11;;;;;;;250.77;85.63;;;;;;;;;;6241574;23;20019;-87
2022/05/30 02:42:38;;;;;;;262.20;89.38;;;;;;;;;;6241718;23;20079;-88
2022/05/30 02:45:04;;;;;;;275.10;91.93;;;;;;;;;;6242170;23;20034;-88
2022/05/30 02:47:30;;;;;;;292.70;98.28;;;;;;;;;;6240274;23;20122;-86
2022/05/30 02:49:56;;;;;;;321.15;105.05;;;;;;;;;;6242003;23;20001;-86
2022/05/30 02:52:22;;;;;;;347.27;110.95;;;;;;;;;;6241677;23;19996;-85
2022/05/30 02:54:48;;;;;;;342.80;109.35;;;;;;;;;;6241760;23;20008;-85
2022/05/30 02:57:14;;;;;;;334.13;107.90;;;;;;;;;;6242911;23;20003;-90
2022/05/30 02:59:40;;;;;;;367.30;115.72;;;;;;;;;;6252863;23;20004;-87
2022/05/30 03:02:06;;;;;;;357.92;115.20;;;;;;;;;;6259293;23;19996;-85
2022/05/30 03:04:32;;;;;;;337.50;109.60;;;;;;;;;;6253798;23;20004;-86
2022/05/30 03:06:58;;;;;;;338.63;109.63;;;;;;;;;;6245458;23;20011;-85
2022/05/30 03:09:24;;;;;;;353.88;113.70;;;;;;;;;;6241933;23;19996;-86
2022/05/30 03:11:50;;;;;;;372.15;117.57;;;;;;;;;;6241128;23;20317;-86
2022/05/30 03:14:17;;;;;;;377.48;118.90;;;;;;;;;;6242123;23;20071;-86
2022/05/30 03:16:43;;;;;;;394.13;123.50;;;;;;;;;;6242599;23;20054;-85
2022/05/30 03:19:09;;;;;;;417.48;128.10;;;;;;;;;;6241265;23;20003;-85
2022/05/30 03:21:35;;;;;;;434.65;132.07;;;;;;;;;;6240699;23;20000;-85
2022/05/30 03:24:01;;;;;;;449.90;135.80;;;;;;;;;;6241187;23;20483;-85
2022/05/30 03:26:27;;;;;;;471.05;140.55;;;;;;;;;;6239540;23;20008;-85
2022/05/30 03:28:53;;;;;;;472.55;140.48;;;;;;;;;;6239464;23;20464;-86
2022/05/30 03:31:19;;;;;;;456.83;137.63;;;;;;;;;;6241240;23;20043;-85
2022/05/30 03:33:45;;;;;;;435.17;132.77;;;;;;;;;;6240652;23;20004;-85
2022/05/30 03:36:13;;;;;;;448.95;135.40;;;;;;;;;;6241216;23;20008;-85
2022/05/30 03:38:39;;;;;;;464.42;139.38;;;;;;;;;;6240286;23;20004;-85
2022/05/30 03:41:05;;;;;;;478.98;143.88;;;;;;;;;;6239499;23;20500;-85
2022/05/30 03:43:31;;;;;;;480.50;144.98;;;;;;;;;;6240968;23;20086;-85
2022/05/30 03:45:57;;;;;;;490.52;146.95;;;;;;;;;;6241047;23;20023;-85
2022/05/30 03:48:23;;;;;;;495.83;147.73;;;;;;;;;;6240939;23;20058;-85
2022/05/30 03:50:50;;;;;;;503.98;149.73;;;;;;;;;;6239952;23;20035;-86
2022/05/30 03:53:16;;;;;;;515.65;152.85;;;;;;;;;;6240093;23;20009;-83
2022/05/30 03:55:43;;;;;;;514.97;153.88;;;;;;;;;;6240480;23;20012;-85
2022/05/30 03:58:10;;;;;;;519.28;154.75;;;;;;;;;;6240705;23;20000;-85
2022/05/30 04:00:38;;;;;;;508.98;152.25;;;;;;;;;;6241340;23;20082;-91
2022/05/30 04:03:04;;;;;;;462.87;143.23;;;;;;;;;;6240682;23;20062;-85
2022/05/30 04:05:31;;;;;;;502.10;152.02;;;;;;;;;;6240895;23;20341;-85
2022/05/30 04:07:57;;;;;;;507.30;152.25;;;;;;;;;;6238270;23;20494;-85
2022/05/30 04:10:23;;;;;;;490.83;148.05;;;;;;;;;;6240646;23;19996;-89
2022/05/30 04:12:50;;;;;;;513.88;155.68;;;;;;;;;;6241484;23;20031;-88
2022/05/30 04:15:21;;;;;;;510.50;154.10;;;;;;;;;;6241131;23;20457;-87
2022/05/30 04:17:47;;;;;;;521.17;157.73;;;;;;;;;;6241931;23;20027;-88
2022/05/30 04:20:14;;;;;;;510.88;154.43;;;;;;;;;;6239370;23;20011;-86
2022/05/30 04:22:40;;;;;;;505.13;154.50;;;;;;;;;;6241243;23;20046;-85
2022/05/30 04:25:06;;;;;;;499.13;153.07;;;;;;;;;;6230639;23;20392;-87
2022/05/30 04:27:32;;;;;;;486.63;149.02;;;;;;;;;;6236954;23;20332;-86
2022/05/30 04:29:58;;;;;;;503.13;154.13;;;;;;;;;;6238132;23;20004;-87
2022/05/30 04:32:24;;;;;;;493.95;150.45;;;;;;;;;;6238284;23;20000;-89
2022/05/30 04:34:51;;;;;;;514.13;158.55;;;;;;;;;;6239410;23;20012;-89
2022/05/30 04:37:17;;;;;;;522.17;162.02;;;;;;;;;;6239295;23;20007;-86
2022/05/30 04:39:43;;;;;;;540.95;171.15;;;;;;;;;;6239992;23;20340;-85
2022/05/30 04:42:09;;;;;;;545.97;174.07;;;;;;;;;;6238201;23;20033;-84
2022/05/30 04:44:35;;;;;;;536.10;171.30;;;;;;;;;;6240580;23;20328;-86
2022/05/30 04:47:02;;;;;;;537.13;171.18;;;;;;;;;;6239210;23;20012;-89
2022/05/30 04:49:28;;;;;;;553.67;178.23;;;;;;;;;;6239224;23;20004;-88
2022/05/30 04:51:54;;;;;;;572.55;189.05;;;;;;;;;;6240726;23;20031;-89
2022/05/30 04:54:21;;;;;;;594.47;199.98;;;;;;;;;;6241271;23;20000;-88
2022/05/30 04:56:47;;;;;;;591.45;198.55;;;;;;;;;;6239420;23;20448;-88
2022/05/30 04:59:13;;;;;;;602.13;203.65;;;;;;;;;;6239339;23;20292;-86
2022/05/30 05:01:39;;;;;;;610.00;207.88;;;;;;;;;;6239020;23;20015;-85
2022/05/30 05:04:06;;;;;;;618.22;209.95;;;;;;;;;;6238571;23;20008;-85
2022/05/30 05:06:32;;;;;;;618.50;210.93;;;;;;;;;;6240381;23;20004;-86
2022/05/30 05:09:00;;;;;;;620.10;209.73;;;;;;;;;;6240786;23;20053;-89
2022/05/30 05:11:27;;;;;;;628.55;213.07;;;;;;;;;;6241308;23;20055;-88
2022/05/30 05:13:54;;;;;;;628.65;213.95;;;;;;;;;;6241904;23;20004;-88
2022/05/30 05:16:22;;;;;;;636.47;216.57;;;;;;;;;;6241747;23;20492;-85
2022/05/30 05:18:48;;;;;;;613.78;207.23;;;;;;;;;;6240179;23;19996;-85
2022/05/30 05:21:17;;;;;;;628.20;213.70;;;;;;;;;;6240710;23;20373;-85
2022/05/30 05:23:43;;;;;;;628.33;213.85;;;;;;;;;;6240793;23;20008;-85
2022/05/30 05:26:09;;;;;;;621.97;209.68;;;;;;;;;;6241241;23;20008;-86
2022/05/30 05:28:35;;;;;;;622.70;210.52;;;;;;;;;;6242479;23;20000;-86
2022/05/30 05:31:02;;;;;;;616.15;206.05;;;;;;;;;;6242473;23;20563;-87
2022/05/30 05:33:28;;;;;;;594.05;195.68;;;;;;;;;;6241161;23;20503;-86
2022/05/30 05:35:54;;;;;;;622.75;208.75;;;;;;;;;;6243438;23;20397;-86
2022/05/30 05:38:20;;;;;;;626.28;208.45;;;;;;;;;;6243882;23;20329;-86
2022/05/30 05:40:46;;;;;;;626.38;207.55;;;;;;;;;;6252268;23;20004;-85
2022/05/30 05:43:12;;;;;;;651.60;220.30;;;;;;;;;;6247615;23;20016;-87
2022/05/30 05:45:40;;;;;;;648.75;218.57;;;;;;;;;;6244389;23;20004;-87
2022/05/30 05:48:07;;;;;;;578.53;187.30;;;;;;;;;;6241112;23;20001;-92
2022/05/30 05:50:33;;;;;;;618.53;208.10;;;;;;;;;;6239851;23;20404;-87
2022/05/30 05:52:59;;;;;;;628.58;209.57;;;;;;;;;;6240403;23;20415;-85
2022/05/30 05:55:26;;;;;;;625.20;206.43;;;;;;;;;;6242496;23;20039;-92
2022/05/30 05:57:52;;;;;;;626.70;207.65;;;;;;;;;;6240799;23;20015;-88
2022/05/30 06:00:19;;;;;;;623.45;204.18;;;;;;;;;;6239480;23;20027;-87
2022/05/30 06:02:45;;;;;;;635.42;209.18;;;;;;;;;;6241398;23;20098;-86
2022/05/30 06:05:11;;;;;;;639.03;210.75;;;;;;;;;;6240489;23;20066;-90
2022/05/30 06:07:38;;;;;;;635.10;208.13;;;;;;;;;;6239349;23;20004;-89
2022/05/30 06:10:06;;;;;;;635.67;208.75;;;;;;;;;;6240851;23;20000;-84
2022/05/30 06:12:36;;;;;;;659.78;217.75;;;;;;;;;;6241734;23;20054;-87
2022/05/30 06:15:03;;;;;;;635.65;206.48;;;;;;;;;;6242429;23;20015;-87
2022/05/30 06:17:32;;;;;;;629.15;202.27;;;;;;;;;;6242168;23;19996;-92
2022/05/30 06:19:58;;;;;;;621.75;198.43;;;;;;;;;;6242342;23;20000;-87
2022/05/30 06:22:25;;;;;;;627.92;200.25;;;;;;;;;;6241904;23;20004;-91
2022/05/30 06:24:51;;;;;;;642.72;207.27;;;;;;;;;;6242191;23;20000;-86
2022/05/30 06:27:20;;;;;;;616.13;195.98;;;;;;;;;;6240423;23;20514;-87
2022/05/30 06:29:47;;;;;;;629.15;201.43;;;;;;;;;;6240350;23;20008;-87
2022/05/30 06:32:13;;;;;;;601.58;190.18;;;;;;;;;;6239898;23;20388;-89
2022/05/30 06:34:39;;;;;;;594.72;186.18;;;;;;;;;;6240633;23;20062;-87
2022/05/30 06:37:06;;;;;;;578.85;177.65;;;;;;;;;;6242712;23;20074;-91
2022/05/30 06:39:32;;;;;;;593.20;182.60;;;;;;;;;;6240729;23;20004;-88
2022/05/30 06:41:58;;;;;;;598.45;184.82;;;;;;;;;;6242305;23;20000;-87
2022/05/30 06:44:24;;;;;;;617.45;192.90;;;;;;;;;;6241298;23;20034;-87
2022/05/30 06:46:50;;;;;;;619.67;194.18;;;;;;;;;;6240142;23;20008;-87
2022/05/30 06:49:16;;;;;;;629.50;197.32;;;;;;;;;;6240547;23;20011;-88
2022/05/30 06:51:44;;;;;;;629.60;197.90;;;;;;;;;;6242083;23;20340;-87
2022/05/30 06:54:10;;;;;;;651.78;207.27;;;;;;;;;;6240479;23;20011;-91
2022/05/30 06:56:37;;;;;;;683.05;217.80;;;;;;;;;;6242179;23;20007;-87
2022/05/30 06:59:04;;;;;;;665.50;210.63;;;;;;;;;;6240517;23;20007;-92
2022/05/30 07:01:33;;;;;;;645.60;200.57;;;;;;;;;;6240131;23;20401;-87
2022/05/30 07:03:59;;;;;;;642.97;197.23;;;;;;;;;;6240978;23;19997;-89
2022/05/30 07:06:30;;;;;;;658.25;202.18;;;;;;;;;;6242837;23;20004;-87
2022/05/30 07:08:56;;;;;;;622.08;188.30;;;;;;;;;;6241104;23;20008;-87
2022/05/30 07:11:22;;;;;;;650.42;198.15;;;;;;;;;;6240252;23;20442;-89
2022/05/30 07:13:49;;;;;;;642.35;194.27;;;;;;;;;;6239965;23;20000;-88
2022/05/30 07:16:15;;;;;;;631.45;192.02;;;;;;;;;;6240481;23;20015;-90
2022/05/30 07:18:45;;;;;;;659.20;199.68;;;;;;;;;;6240217;23;20004;-88
2022/05/30 07:21:13;;;;;;;659.05;202.55;;;;;;;;;;6240185;23;20091;-89
2022/05/30 07:23:39;;;;;;;637.40;192.30;;;;;;;;;;6240109;23;20000;-88
2022/05/30 07:26:08;;;;;;;632.63;190.55;;;;;;;;;;6240049;23;20015;-88
2022/05/30 07:28:34;;;;;;;648.65;197.18;;;;;;;;;;6239917;23;20321;-89
2022/05/30 07:31:04;;;;;;;682.80;208.15;;;;;;;;;;6240108;23;20017;-88
2022/05/30 07:33:31;;;;;;;661.03;200.25;;;;;;;;;;6240220;23;19996;-88
2022/05/30 07:35:57;;;;;;;679.03;206.85;;;;;;;;;;6240857;23;20515;-88
2022/05/30 07:38:23;;;;;;;693.65;213.52;;;;;;;;;;6239983;23;20008;-88
2022/05/30 07:40:49;;;;;;;722.75;219.48;;;;;;;;;;6241374;23;20004;-88
2022/05/30 07:43:15;;;;;;;716.78;219.18;;;;;;;;;;6241337;23;20015;-88
2022/05/30 07:45:41;;;;;;;719.45;220.20;;;;;;;;;;6239930;23;20000;-89
2022/05/30 07:48:08;;;;;;;727.08;221.82;;;;;;;;;;6239854;23;20007;-88
2022/05/30 07:50:35;;;;;;;743.17;228.15;;;;;;;;;;6241458;23;20019;-87
2022/05/30 07:53:01;;;;;;;778.20;238.40;;;;;;;;;;6241049;23;20008;-87
2022/05/30 07:55:29;;;;;;;781.63;239.07;;;;;;;;;;6242545;23;20491;-87
2022/05/30 07:57:55;;;;;;;779.85;237.70;;;;;;;;;;6239924;23;20012;-90
2022/05/30 08:00:24;;;;;;;776.38;236.88;;;;;;;;;;6239662;23;20179;-88
2022/05/30 08:02:50;;;;;;;800.22;245.27;;;;;;;;;;6239607;23;20004;-87
2022/05/30 08:05:16;;;;;;;816.70;252.13;;;;;;;;;;6241173;23;20000;-89
2022/05/30 08:07:44;;;;;;;827.80;254.98;;;;;;;;;;6239481;23;20384;-90
2022/05/30 08:10:10;;;;;;;825.25;253.25;;;;;;;;;;6240931;23;20493;-89
2022/05/30 08:12:36;;;;;;;829.30;252.65;;;;;;;;;;6239413;23;20011;-88
2022/05/30 08:15:03;;;;;;;828.08;253.05;;;;;;;;;;6251102;23;20008;-87
2022/05/30 08:17:29;;;;;;;829.50;252.68;;;;;;;;;;6261257;23;20011;-87
2022/05/30 08:19:55;;;;;;;828.28;251.82;;;;;;;;;;6249522;23;20054;-88
2022/05/30 08:22:22;;;;;;;854.28;260.08;;;;;;;;;;6242074;23;20039;-89
2022/05/30 08:24:50;;;;;;;858.10;261.88;;;;;;;;;;6241274;23;20050;-89
2022/05/30 08:27:16;;;;;;;;;;;;;;;;;;6240005;23;20379;-90
2022/05/30 08:29:42;;;;;;;851.47;261.23;;;;;;;;;;6241269;23;19927;-88
2022/05/30 08:32:09;;;;;;;863.45;263.63;;;;;;;;;;6241067;23;20000;-88
2022/05/30 08:34:39;;;;;;;864.03;261.23;;;;;;;;;;6239357;23;20111;-87
2022/05/30 08:37:06;;;;;;;855.55;257.10;;;;;;;;;;6239941;23;20011;-89
2022/05/30 08:42:22;;;;;;;881.35;264.83;;;;;;;;;;6241060;23;20054;-89
2022/05/30 08:44:48;;;;;;;864.97;260.15;;;;;;;;;;6241237;23;20004;-88
2022/05/30 08:47:14;;;;;;;865.97;260.15;;;;;;;;;;6241158;23;20008;-88
2022/05/30 08:49:52;;;;;;;870.05;261.65;;;;;;;;;;6239659;23;20011;-88
2022/05/30 08:52:32;;;;;;;874.72;262.10;;;;;;;;;;6241339;23;20003;-90
2022/05/30 08:55:00;;;;;;;877.13;261.95;;;;;;;;;;6240570;23;20055;-90
2022/05/30 08:57:39;;;;;;;864.10;256.60;;;;;;;;;;6243194;23;20443;-88
2022/05/30 09:00:13;;;;;;;857.22;253.50;;;;;;;;;;6241263;23;20091;-88
2022/05/30 09:02:45;;;;;;;857.10;252.98;;;;;;;;;;6241302;23;20345;-89
2022/05/30 09:05:17;;;;;;;866.20;255.75;;;;;;;;;;6242853;23;19997;-89
2022/05/30 09:07:48;;;;;;;854.40;251.43;;;;;;;;;;6242916;23;20011;-89
2022/05/30 09:10:19;;;;;;;862.15;252.90;;;;;;;;;;6242824;23;20003;-89
2022/05/30 09:12:47;;;;;;;867.53;254.40;;;;;;;;;;6240931;23;20004;-90
2022/05/30 09:15:26;;;;;;;868.00;251.55;;;;;;;;;;6242682;23;20062;-87
2022/05/30 09:17:52;;;;;;;871.35;254.30;;;;;;;;;;6243091;23;20472;-89
2022/05/30 09:20:20;;;;;;;873.75;252.68;;;;;;;;;;6241196;23;20004;-89
2022/05/30 09:22:46;;;;;;;891.92;259.73;;;;;;;;;;6241283;23;20044;-92
2022/05/30 09:28:02;;;;;;;877.80;252.95;;;;;;;;;;6244028;23;20519;-89
2022/05/30 09:30:37;;;;;;;876.88;251.73;;;;;;;;;;6242590;23;20480;-89
2022/05/30 09:33:14;;;;;;;876.63;251.45;;;;;;;;;;6241811;23;20023;-89
2022/05/30 09:35:42;;;;;;;871.78;250.52;;;;;;;;;;6240892;23;20429;-91
2022/05/30 09:38:19;;;;;;;1057.32;308.08;;;;;;;;;;6241596;23;20494;-89
2022/05/30 09:40:50;;;;;;;1022.87;299.07;;;;;;;;;;6242883;23;20008;-90
2022/05/30 09:43:24;;;;;;;923.60;269.33;;;;;;;;;;6241300;23;20433;-88
2022/05/30 09:45:50;;;;;;;922.17;267.30;;;;;;;;;;6242742;23;20023;-90
2022/05/30 09:48:21;;;;;;;940.67;274.02;;;;;;;;;;6242849;23;20444;-87
2022/05/30 09:50:49;;;;;;;912.83;265.80;;;;;;;;;;6242986;23;20000;-88
2022/05/30 09:53:34;;;;;;;919.92;266.55;;;;;;;;;;6241343;23;20398;-90
2022/05/30 09:56:00;;;;;;;904.75;262.10;;;;;;;;;;6242592;23;20087;-90
2022/05/30 09:58:45;;;;;;;895.53;259.17;;;;;;;;;;6241065;23;20006;-89
2022/05/30 10:01:11;;;;;;;899.88;259.33;;;;;;;;;;6242627;23;20000;-91
2022/05/30 10:03:40;;;;;;;912.20;262.30;;;;;;;;;;6243567;23;20318;-90
2022/05/30 10:06:20;;;;;;;882.67;256.30;;;;;;;;;;6243771;23;19996;-89
2022/05/30 10:08:46;;;;;;;939.65;273.08;;;;;;;;;;6242479;23;20314;-88
2022/05/30 10:11:30;;;;;;;928.58;271.35;;;;;;;;;;6241297;23;20066;-90
2022/05/30 10:13:56;;;;;;;858.70;247.98;;;;;;;;;;6240616;23;20349;-92
2022/05/30 10:16:48;;;;;;;964.17;284.80;;;;;;;;;;6240981;23;20448;-89
2022/05/30 10:19:44;;;;;;;968.45;281.00;;;;;;;;;;6235159;23;20028;-89
2022/05/30 10:28:16;;;;;;;1046.05;307.80;;;;;;;;;;6242367;23;20011;-89
2022/05/30 10:30:48;;;;;;;895.65;264.08;;;;;;;;;;6242566;23;20008;-90
2022/05/30 10:33:17;;;;;;;895.63;257.88;;;;;;;;;;6242622;23;20052;-87
2022/05/30 10:36:03;;;;;;;830.15;236.65;;;;;;;;;;6242176;23;20397;-88
2022/05/30 10:38:47;;;;;;;862.53;249.18;;;;;;;;;;6242034;23;20341;-90
2022/05/30 10:41:32;;;;;;;839.72;237.95;;;;;;;;;;6242182;23;20075;-90
2022/05/30 10:43:58;;;;;;;789.30;222.38;;;;;;;;;;6241998;23;20008;-90
2022/05/30 10:46:33;;;;;;;788.28;221.50;;;;;;;;;;6241492;23;20004;-89
2022/05/30 10:49:00;;;;;;;833.30;234.25;;;;;;;;;;6259112;23;20031;-88
2022/05/30 10:51:28;;;;;;;799.80;223.68;;;;;;;;;;6256355;23;20006;-89
2022/05/30 10:53:57;;;;;;;833.15;232.95;;;;;;;;;;6244792;23;20403;-88
2022/05/30 10:56:33;;;;;;;847.88;241.35;;;;;;;;;;6241847;23;20004;-88
2022/05/30 10:59:12;;;;;;;845.38;242.38;;;;;;;;;;6242066;23;20054;-89
2022/05/30 11:01:44;;;;;;;868.38;246.05;;;;;;;;;;6243297;23;20028;-89
2022/05/30 11:04:15;;;;;;;869.40;247.23;;;;;;;;;;6243229;23;20486;-89
2022/05/30 11:06:43;;;;;;;934.38;263.30;;;;;;;;;;6242765;23;20000;-89
2022/05/30 11:09:33;;;;;;;890.88;249.88;;;;;;;;;;6242732;23;20064;-89
2022/05/30 11:12:05;;;;;;;863.20;244.25;;;;;;;;;;6240594;23;20000;-90
2022/05/30 11:14:35;;;;;;;856.38;242.45;;;;;;;;;;6241910;23;20000;-93
2022/05/30 11:17:20;;;;;;;861.05;241.68;;;;;;;;;;6240411;23;20032;-88
2022/05/30 11:19:58;;;;;;;867.50;244.38;;;;;;;;;;6238990;23;20433;-91
2022/05/30 11:22:35;;;;;;;886.15;248.98;;;;;;;;;;6241189;23;20004;-89
2022/05/30 11:25:02;;;;;;;877.20;243.70;;;;;;;;;;6238999;23;20378;-89
2022/05/30 11:27:31;;;;;;;863.85;239.75;;;;;;;;;;6238055;23;20341;-91
2022/05/30 11:30:00;;;;;;;842.20;233.65;;;;;;;;;;6239586;23;20425;-87
2022/05/30 11:32:32;;;;;;;905.25;251.52;;;;;;;;;;6240119;23;20011;-87
2022/05/30 11:35:01;;;;;;;866.50;247.18;;;;;;;;;;6238479;23;20004;-88
2022/05/30 11:37:30;;;;;;;946.47;269.02;;;;;;;;;;6240232;23;20000;-87
2022/05/30 11:39:59;;;;;;;912.58;258.55;;;;;;;;;;6241480;23;19996;-87
2022/05/30 11:42:35;;;;;;;910.38;263.20;;;;;;;;;;6239907;23;20567;-89
2022/05/30 11:45:07;;;;;;;943.83;270.25;;;;;;;;;;6241495;23;20001;-89
2022/05/30 11:47:33;;;;;;;906.38;260.90;;;;;;;;;;6240575;23;20076;-88
2022/05/30 11:50:18;;;;;;;938.15;269.60;;;;;;;;;;6241358;23;20020;-92
2022/05/30 11:52:56;;;;;;;917.08;261.73;;;;;;;;;;6239966;23;20000;-88
2022/05/30 11:55:37;;;;;;;969.97;277.73;;;;;;;;;;6241023;23;20008;-88
2022/05/30 11:58:11;;;;;;;772.67;217.18;;;;;;;;;;6240352;23;20032;-88
2022/05/30 12:01:04;;;;;;;846.83;245.93;;;;;;;;;;6239312;23;20054;-88
2022/05/30 12:03:30;;;;;;;817.55;237.60;;;;;;;;;;6236428;22;20079;-87
2022/05/30 12:06:09;;;;;;;808.58;233.30;;;;;;;;;;6239678;23;20000;-89
2022/05/30 12:08:37;;;;;;;808.80;233.70;;;;;;;;;;6241163;23;20000;-87
2022/05/30 12:11:10;;;;;;;883.05;257.00;;;;;;;;;;6241149;23;20400;-88
2022/05/30 12:13:36;;;;;;;818.78;237.60;;;;;;;;;;6240241;23;20432;-87
2022/05/30 12:16:11;;;;;;;861.20;253.60;;;;;;;;;;6240831;23;20060;-92
2022/05/30 12:24:33;;;;;;;855.90;245.55;;;;;;;;;;6240865;23;20015;-89
2022/05/30 12:27:22;;;;;;;835.90;238.90;;;;;;;;;;6238667;23;20087;-87
2022/05/30 12:29:50;;;;;;;866.22;246.73;;;;;;;;;;6228536;22;20011;-86
2022/05/30 12:32:22;;;;;;;907.60;258.77;;;;;;;;;;6240857;23;20004;-87
2022/05/30 12:37:47;;;;;;;923.90;270.73;;;;;;;;;;6240916;23;20223;-86
2022/05/30 12:40:13;;;;;;;;;;;;;;;;;;6241521;23;20036;-88
2022/05/30 12:42:43;;;;;;;892.45;265.23;;;;;;;;;;6238631;23;19907;-87
2022/05/30 12:45:16;;;;;;;904.85;268.02;;;;;;;;;;6241483;23;20322;-91
2022/05/30 12:47:49;;;;;;;911.03;268.58;;;;;;;;;;6241019;23;20043;-89
2022/05/30 12:50:35;;;;;;;932.75;275.00;;;;;;;;;;6241837;23;20027;-86
2022/05/30 12:53:02;;;;;;;959.35;283.73;;;;;;;;;;6240800;22;20011;-91
2022/05/30 12:55:39;;;;;;;914.80;266.73;;;;;;;;;;6240608;23;20015;-87
2022/05/30 12:58:06;;;;;;;862.65;251.40;;;;;;;;;;6238668;23;20555;-89
2022/05/30 13:00:42;;;;;;;870.20;254.23;;;;;;;;;;6240851;23;20014;-89
2022/05/30 13:03:11;;;;;;;864.85;251.27;;;;;;;;;;6241106;23;20052;-88
2022/05/30 13:05:40;;;;;;;897.42;261.20;;;;;;;;;;6239184;23;20437;-90
2022/05/30 13:08:25;;;;;;;868.08;251.45;;;;;;;;;;6239114;23;20087;-88
2022/05/30 13:10:54;;;;;;;880.83;255.52;;;;;;;;;;6239200;23;20043;-89
2022/05/30 13:13:24;;;;;;;871.47;251.98;;;;;;;;;;6240158;23;20425;-88
2022/05/30 13:15:55;;;;;;;879.00;252.77;;;;;;;;;;6240303;23;20051;-89
2022/05/30 13:18:22;;;;;;;899.38;257.90;;;;;;;;;;6239032;23;20024;-91
2022/05/30 13:21:01;;;;;;;879.03;249.05;;;;;;;;;;6239321;23;20008;-89
2022/05/30 13:23:33;;;;;;;872.22;247.95;;;;;;;;;;6241448;23;20004;-88
2022/05/30 13:26:00;;;;;;;878.85;248.48;;;;;;;;;;6258694;23;20004;-87
2022/05/30 13:28:32;;;;;;;874.78;246.45;;;;;;;;;;6240395;23;19996;-90
2022/05/30 13:31:01;;;;;;;873.97;246.05;;;;;;;;;;6238773;23;20062;-89
2022/05/30 13:33:29;;;;;;;888.05;250.02;;;;;;;;;;6241245;23;20004;-87
2022/05/30 13:35:59;;;;;;;871.33;245.00;;;;;;;;;;6242032;23;20066;-91
2022/05/30 13:38:33;;;;;;;882.92;250.48;;;;;;;;;;6239189;23;20035;-88
2022/05/30 13:41:09;;;;;;;910.35;258.63;;;;;;;;;;6240048;23;20004;-87
2022/05/30 13:43:35;;;;;;;880.83;250.18;;;;;;;;;;6241852;23;20004;-88
2022/05/30 13:46:01;;;;;;;894.70;253.98;;;;;;;;;;6242906;23;20366;-92
2022/05/30 13:48:28;;;;;;;900.08;256.65;;;;;;;;;;6241172;23;20035;-92
2022/05/30 13:50:54;;;;;;;892.08;254.35;;;;;;;;;;6242552;23;20007;-87
2022/05/30 13:53:22;;;;;;;866.92;246.07;;;;;;;;;;6240753;23;20008;-88
2022/05/30 13:56:02;;;;;;;907.17;257.45;;;;;;;;;;6241737;23;20420;-88
2022/05/30 13:58:30;;;;;;;898.72;255.82;;;;;;;;;;6241777;23;20001;-92
2022/05/30 14:00:59;;;;;;;912.58;260.63;;;;;;;;;;6240880;23;20008;-91
2022/05/30 14:03:25;;;;;;;906.78;258.92;;;;;;;;;;6242506;23;19996;-88
2022/05/30 14:05:51;;;;;;;914.58;260.92;;;;;;;;;;6242282;23;20000;-88
2022/05/30 14:08:21;;;;;;;924.03;264.42;;;;;;;;;;6241620;23;20024;-91
2022/05/30 14:10:48;;;;;;;923.15;262.25;;;;;;;;;;6241729;23;20449;-86
2022/05/30 14:13:31;;;;;;;900.80;256.50;;;;;;;;;;6241382;23;20024;-87
2022/05/30 14:15:59;;;;;;;879.92;250.70;;;;;;;;;;6240538;23;20391;-87
2022/05/30 14:18:25;;;;;;;;;;;;;;;;;;6242922;23;20082;-88
2022/05/30 14:20:52;;;;;;;864.67;245.93;;;;;;;;;;6242267;23;19934;-90
2022/05/30 14:23:18;;;;;;;872.75;248.65;;;;;;;;;;6243298;23;20000;-87
2022/05/30 14:25:50;;;;;;;869.38;247.32;;;;;;;;;;6241214;23;20351;-87
2022/05/30 14:28:25;;;;;;;868.22;246.73;;;;;;;;;;6241420;23;20011;-87
2022/05/30 14:30:51;;;;;;;873.00;247.93;;;;;;;;;;6242201;23;20010;-87
2022/05/30 14:33:17;;;;;;;880.13;249.80;;;;;;;;;;6240911;23;20023;-87